^^
Station Historical Data
Daily Summary for October 11, 2018 Units:  English    Metric   Both
« Previous Day
Next Day »
Daily Weekly Monthly Yearly Custom
  High: Low: Average:
Temperature: TemperatureF °F 54.9 °F 66.9 °F
Dew Point: DewpointF °F 45.7 °F 54 °F
Humidity: Humidity% 53% 64%
Wind Speed: WindSpeedMPHmph 0mph 0.7mph
Wind Gust: WindSpeedGustMPHmph - -
Wind- - WSW
Pressure: PressureIn in 29.60 in -
Precipitation: 1.31 in    
Historical Graphs
 
 
Tabular Data for October 11, 2018
Time Temperature Dew Point Pressure Wind Wind Speed Wind Gust Humidity Rainfall Rate (Hourly)
TemperatureF °F DewpointF °F PressureIn in Calm     Humidity% HourlyPrecipIn in
00:04 70.2 °F 53.8 °F 29.70 in Calm   6 mph 56% 0.29 in
00:09 70.2 °F 53.8 °F 29.69 in NNW 2 mph 2 mph 56% 0.3 in
00:14 70.2 °F 53.8 °F 29.69 in Calm   1 mph 56% 0.29 in
00:19 70.2 °F 53.8 °F 29.70 in Calm     56% 0.29 in
00:24 70.2 °F 53.8 °F 29.69 in Calm   3 mph 56% 0.29 in
00:29 70.2 °F 53.8 °F 29.68 in Calm   6 mph 56% 0.3 in
00:34 70.2 °F 53.2 °F 29.68 in Calm   3 mph 55% 0.3 in
00:39 70.2 °F 53.2 °F 29.68 in NNW 0.9 mph 7 mph 55% 0.3 in
00:44 70.2 °F 53.2 °F 29.68 in Calm   4 mph 55% 0.3 in
00:49 70 °F 53.1 °F 29.67 in Calm   7 mph 55% 0.29 in
00:54 70.2 °F 53.2 °F 29.67 in NW 0.9 mph 3 mph 55% 0.27 in
00:59 70 °F 53.1 °F 29.66 in NW 4.9 mph 6 mph 55% 0.27 in
01:04 70.2 °F 53.2 °F 29.67 in Calm   4 mph 55% 0.28 in
01:09 70.2 °F 53.2 °F 29.66 in Calm   6 mph 55% 0.27 in
01:14 70 °F 53.1 °F 29.65 in NW 0.9 mph 1 mph 55% 0.29 in
01:19 70 °F 53.1 °F 29.65 in NE 2 mph 6 mph 55% 0.29 in
01:24 70 °F 53.1 °F 29.65 in ENE 0.9 mph 4 mph 55% 0.28 in
01:29 70 °F 53.1 °F 29.65 in Calm     55% 0.26 in
01:34 70 °F 53.1 °F 29.65 in Calm   6 mph 55% 0.25 in
01:39 70 °F 53.1 °F 29.65 in Calm   5 mph 55% 0.24 in
01:44 70 °F 53.1 °F 29.65 in NW 6 mph 8 mph 55% 0.23 in
01:49 70 °F 53.1 °F 29.65 in North 2 mph 3 mph 55% 0.2 in
01:54 70 °F 53.1 °F 29.65 in North 0.9 mph 6 mph 55% 0.17 in
01:59 69.8 °F 52.9 °F 29.65 in Calm   4 mph 55% 0.16 in
02:04 69.6 °F 52.7 °F 29.65 in NNW 0.9 mph 4 mph 55% 0.18 in
02:09 69.4 °F 52.5 °F 29.64 in NW 0.9 mph 8 mph 55% 0.21 in
02:14 69.4 °F 52.5 °F 29.64 in NNE 6.9 mph 7 mph 55% 0.23 in
02:19 69.4 °F 52.5 °F 29.64 in West 2 mph 7 mph 55% 0.3 in
02:24 69.3 °F 52.3 °F 29.62 in WSW 4.9 mph 9 mph 55% 0.36 in
02:29 69.3 °F 52.3 °F 29.62 in Calm   4 mph 55% 0.42 in
02:34 69.1 °F 52.2 °F 29.63 in WNW 6 mph 6 mph 55% 0.42 in
02:39 69.1 °F 52.2 °F 29.62 in Calm   6 mph 55% 0.42 in
02:44 69.1 °F 52.2 °F 29.62 in Calm   5 mph 55% 0.41 in
02:49 69.1 °F 52.2 °F 29.63 in Calm   3 mph 55% 0.4 in
02:54 69.1 °F 52.2 °F 29.62 in WNW 2 mph 4 mph 55% 0.41 in
02:59 68.9 °F 52 °F 29.62 in Calm   4 mph 55% 0.4 in
03:04 69.1 °F 52.2 °F 29.62 in Calm   4 mph 55% 0.36 in
03:09 69.1 °F 52.2 °F 29.62 in NW 6 mph 6 mph 55% 0.32 in
03:14 68.9 °F 52 °F 29.62 in Calm   2 mph 55% 0.25 in
03:19 68.7 °F 52 °F 29.62 in Calm   4 mph 55% 0.19 in
03:24 68.7 °F 52 °F 29.62 in NW 4.9 mph 5 mph 55% 0.12 in
03:29 68.7 °F 52 °F 29.63 in East 0.9 mph 3 mph 55% 0.05 in
03:34 68.7 °F 52 °F 29.63 in Calm   9 mph 55% 0.04 in
03:39 68.7 °F 52 °F 29.62 in NNW 2 mph 4 mph 55% 0.06 in
03:44 68.7 °F 52 °F 29.61 in Calm     55% 0.07 in
03:49 68.7 °F 52.3 °F 29.61 in WNW 2.9 mph 6 mph 56% 0.08 in
03:54 68.7 °F 52.3 °F 29.61 in ENE 0.9 mph 11 mph 56% 0.08 in
03:59 68.7 °F 52.3 °F 29.61 in West 2.9 mph 3 mph 56% 0.07 in
04:04 68.7 °F 52 °F 29.61 in Calm   2 mph 55% 0.07 in
04:09 68.7 °F 52 °F 29.61 in NE 0.9 mph 5 mph 55% 0.07 in
04:14 68.9 °F 52 °F 29.61 in Calm   4 mph 55% 0.07 in
04:19 68.7 °F 52 °F 29.61 in Calm     55% 0.07 in
04:24 68.7 °F 52 °F 29.61 in Calm   4 mph 55% 0.08 in
04:29 68.7 °F 52 °F 29.61 in Calm   5 mph 55% 0.09 in
04:34 68.7 °F 52 °F 29.61 in Calm   4 mph 55% 0.11 in
04:39 68.9 °F 52 °F 29.61 in SSE 2 mph 5 mph 55% 0.09 in
04:44 69.1 °F 52.2 °F 29.60 in Calm   3 mph 55% 0.08 in
04:49 69.1 °F 52.2 °F 29.60 in WNW 2.9 mph 5 mph 55% 0.09 in
04:54 69.1 °F 52.2 °F 29.60 in ENE 6 mph 8 mph 55% 0.13 in
04:59 69.3 °F 52.3 °F 29.60 in NW 2 mph 9 mph 55% 0.18 in
05:04 69.4 °F 52.5 °F 29.61 in Calm   6 mph 55% 0.23 in
05:09 69.4 °F 52.5 °F 29.61 in WSW 2 mph 7 mph 55% 0.28 in
05:14 69.4 °F 52.5 °F 29.61 in Calm   1 mph 55% 0.31 in
05:19 69.4 °F 52.5 °F 29.61 in Calm     55% 0.32 in
05:24 69.4 °F 52.5 °F 29.61 in Calm   4 mph 55% 0.31 in
05:29 69.3 °F 52.3 °F 29.61 in Calm   3 mph 55% 0.31 in
05:34 69.3 °F 52.3 °F 29.62 in East 2 mph 5 mph 55% 0.29 in
05:39 69.1 °F 52.2 °F 29.62 in West 4.9 mph 6 mph 55% 0.29 in
05:44 68.9 °F 52 °F 29.62 in Calm   7 mph 55% 0.29 in
05:49 68.7 °F 52 °F 29.62 in WNW 4 mph 7 mph 55% 0.27 in
05:54 68.7 °F 52 °F 29.62 in Calm   1 mph 55% 0.22 in
05:59 68.5 °F 51.8 °F 29.62 in Calm   1 mph 55% 0.18 in
06:04 68.5 °F 51.8 °F 29.62 in NE 2 mph 5 mph 55% 0.13 in
06:09 68.5 °F 51.8 °F 29.62 in Calm   3 mph 55% 0.08 in
06:14 68.5 °F 51.8 °F 29.62 in Calm     55% 0.05 in
06:19 68.5 °F 51.8 °F 29.63 in Calm     55% 0.04 in
06:24 68.5 °F 51.8 °F 29.63 in Calm     55% 0.04 in
06:29 68.5 °F 51.8 °F 29.63 in Calm     55% 0.03 in
06:34 68.5 °F 51.8 °F 29.63 in Calm     55% 0.03 in
06:39 68.5 °F 51.8 °F 29.63 in Calm   2 mph 55% 0.03 in
06:44 68.5 °F 51.8 °F 29.63 in Calm     55% 0.02 in
06:49 68.5 °F 51.8 °F 29.63 in Calm   3 mph 55% 0.03 in
06:54 68.5 °F 51.8 °F 29.63 in Calm   1 mph 55% 0.03 in
06:59 68.5 °F 51.8 °F 29.63 in Calm   4 mph 55% 0.03 in
07:04 68.5 °F 51.8 °F 29.63 in Calm     55% 0.02 in
07:09 68.7 °F 52 °F 29.63 in Calm   1 mph 55% 0.02 in
07:14 68.7 °F 51.4 °F 29.63 in North 2 mph 5 mph 54% 0.02 in
07:19 68.9 °F 51.6 °F 29.63 in Calm   4 mph 54% 0.02 in
07:24 69.1 °F 51.8 °F 29.64 in West 0.9 mph 3 mph 54% 0.02 in
07:29 69.1 °F 51.8 °F 29.64 in Calm   5 mph 54% 0.02 in
07:34 69.1 °F 51.8 °F 29.65 in Calm   1 mph 54% 0.02 in
07:39 69.1 °F 51.8 °F 29.65 in Calm     54% 0.02 in
07:44 69.1 °F 51.8 °F 29.65 in Calm     54% 0.02 in
07:49 69.1 °F 51.8 °F 29.65 in Calm   3 mph 54% 0.01 in
07:54 69.1 °F 51.8 °F 29.65 in Calm   1 mph 54% 0.01 in
07:59 69.1 °F 51.8 °F 29.65 in Calm     54% 0 in
08:04 69.1 °F 51.8 °F 29.65 in Calm     54% 0.01 in
08:09 69.1 °F 51.8 °F 29.65 in Calm     54% 0.01 in
08:14 69.1 °F 51.8 °F 29.65 in Calm   3 mph 54% 0.01 in
08:19 69.1 °F 51.8 °F 29.65 in Calm   3 mph 54% 0.01 in
08:24 69.3 °F 52 °F 29.66 in Calm   3 mph 54% 0.02 in
08:29 69.3 °F 52 °F 29.66 in Calm     54% 0.02 in
08:34 69.3 °F 52 °F 29.67 in Calm   5 mph 54% 0.02 in
08:39 69.3 °F 52 °F 29.67 in Calm   2 mph 54% 0.02 in
08:44 69.3 °F 52 °F 29.67 in Calm   1 mph 54% 0.02 in
08:49 69.3 °F 52 °F 29.67 in Calm   3 mph 54% 0.02 in
08:54 69.3 °F 52 °F 29.68 in Calm     54% 0.02 in
08:59 69.3 °F 52 °F 29.68 in Calm     54% 0.01 in
09:04 69.3 °F 52 °F 29.68 in NNE 2 mph 2 mph 54% 0.01 in
09:09 69.3 °F 52 °F 29.68 in Calm   1 mph 54% 0.01 in
09:14 69.3 °F 52 °F 29.69 in SW 4 mph 12 mph 54% 0.01 in
09:19 69.1 °F 51.8 °F 29.69 in Calm   11 mph 54% 0.01 in
09:24 69.1 °F 51.8 °F 29.70 in WSW 2 mph 5 mph 54% 0 in
09:29 69.1 °F 51.8 °F 29.70 in WNW 2 mph 2 mph 54% 0 in
09:34 69.3 °F 52 °F 29.70 in Calm   3 mph 54% 0 in
09:39 69.4 °F 52.2 °F 29.70 in NW 2.9 mph 5 mph 54% 0 in
09:44 69.6 °F 52.2 °F 29.71 in WNW 2.9 mph 4 mph 54% 0 in
09:49 69.4 °F 52.2 °F 29.71 in Calm   3 mph 54% 0 in
09:54 69.4 °F 52.2 °F 29.71 in Calm   1 mph 54% 0 in
09:59 69.4 °F 52.2 °F 29.72 in Calm   3 mph 54% 0 in
10:04 69.3 °F 52 °F 29.72 in Calm   1 mph 54% 0 in
10:09 69.4 °F 52.2 °F 29.72 in Calm   1 mph 54% 0 in
10:14 69.3 °F 52 °F 29.72 in Calm   9 mph 54% 0 in
10:19 69.3 °F 52 °F 29.72 in WNW 4 mph 8 mph 54% 0 in
10:24 69.3 °F 52 °F 29.72 in Calm   1 mph 54% 0 in
10:29 69.3 °F 52 °F 29.72 in Calm   2 mph 54% 0 in
10:34 69.3 °F 52 °F 29.72 in Calm   1 mph 54% 0 in
10:39 69.4 °F 52.2 °F 29.73 in WNW 2 mph 4 mph 54% 0 in
10:44 69.4 °F 52.2 °F 29.73 in Calm   9 mph 54% 0 in
10:49 69.6 °F 52.2 °F 29.73 in Calm   8 mph 54% 0 in
10:54 69.6 °F 51.8 °F 29.73 in Calm   2 mph 53% 0 in
10:59 70 °F 52 °F 29.73 in NW 0.9 mph 4 mph 53% 0 in
11:04 70 °F 52 °F 29.74 in NNW 2.9 mph 4 mph 53% 0 in
11:09 70 °F 52.5 °F 29.74 in NNW 2.9 mph 5 mph 54% 0 in
11:14 69.6 °F 52.2 °F 29.75 in Calm   5 mph 54% 0 in
11:19 69.6 °F 52.7 °F 29.74 in NW 2.9 mph 8 mph 55% 0 in
11:24 69.8 °F 52.9 °F 29.75 in Calm   4 mph 55% 0 in
11:29 70.2 °F 53.2 °F 29.75 in Calm   8 mph 55% 0 in
11:34 70.3 °F 54.3 °F 29.75 in WNW 0.9 mph 8 mph 57% 0 in
11:39 70.7 °F 54.7 °F 29.75 in Calm   5 mph 57% 0 in
11:44 71.1 °F 55.6 °F 29.75 in WNW 4.9 mph 5 mph 58% 0 in
11:49 70.9 °F 56.3 °F 29.75 in NE 0.9 mph 5 mph 60% 0 in
11:54 71.1 °F 56.8 °F 29.76 in NNW 2 mph 5 mph 61% 0 in
11:59 71.1 °F 57.7 °F 29.75 in Calm   4 mph 63% 0 in
12:04 70.9 °F 58.1 °F 29.75 in Calm   8 mph 64% 0 in
12:09 70.9 °F 59 °F 29.76 in South 6 mph 6 mph 66% 0 in
12:14 70.9 °F 59.4 °F 29.77 in WNW 0.9 mph 5 mph 67% 0 in
12:19 71.1 °F 59.2 °F 29.76 in Calm   5 mph 66% 0 in
12:24 71.1 °F 59.5 °F 29.77 in NW 4.9 mph 8 mph 67% 0 in
12:29 71.2 °F 60.1 °F 29.77 in WNW 4 mph 8 mph 68% 0 in
12:34 71.2 °F 61 °F 29.77 in Calm   2 mph 70% 0 in
12:39 71.1 °F 61.5 °F 29.78 in Calm   6 mph 72% 0 in
12:44 70.9 °F 61.3 °F 29.78 in Calm   10 mph 72% 0 in
12:49 70.9 °F 61 °F 29.78 in Calm   4 mph 71% 0 in
12:54 70.7 °F 61.2 °F 29.78 in Calm   10 mph 72% 0 in
12:59 70.9 °F 61 °F 29.79 in Calm   7 mph 71% 0 in
13:04 70.5 °F 61.9 °F 29.79 in NW 2 mph 4 mph 74% 0 in
13:09 70.3 °F 61.7 °F 29.79 in Calm   7 mph 74% 0 in
13:14 70.2 °F 60.6 °F 29.79 in Calm   1 mph 72% 0 in
13:19 70.2 °F 61.5 °F 29.79 in Calm   4 mph 74% 0 in
13:24 70.2 °F 61.9 °F 29.79 in NW 0.9 mph 9 mph 75% 0 in
13:29 70.3 °F 61.7 °F 29.79 in Calm   7 mph 74% 0 in
13:34 70.2 °F 61.5 °F 29.79 in WNW 0.9 mph 6 mph 74% 0 in
13:39 70.2 °F 61.9 °F 29.79 in Calm   7 mph 75% 0 in
13:44 70.2 °F 62.2 °F 29.80 in Calm   4 mph 76% 0 in
13:49 70.3 °F 61.7 °F 29.79 in Calm     74% 0 in
13:54 70.5 °F 62.2 °F 29.79 in NW 2.9 mph 7 mph 75% 0 in
13:59 70.5 °F 63 °F 29.79 in Calm   4 mph 77% 0 in
14:04 70.5 °F 63 °F 29.79 in WSW 0.9 mph 9 mph 77% 0 in
14:09 70.9 °F 63.3 °F 29.79 in Calm   11 mph 77% 0 in
14:14 71.1 °F 63.5 °F 29.79 in NW 0.9 mph 7 mph 77% 0 in
14:19 71.2 °F 63.7 °F 29.80 in North 0.9 mph 1 mph 77% 0 in
14:24 71.2 °F 63.3 °F 29.80 in Calm   7 mph 76% 0 in
14:29 71.2 °F 63.3 °F 29.80 in Calm   8 mph 76% 0 in
14:34 71.2 °F 63 °F 29.80 in NNW 0.9 mph 9 mph 75% 0 in
14:39 71.2 °F 63.3 °F 29.79 in Calm   4 mph 76% 0 in
14:44 71.6 °F 63.7 °F 29.80 in Calm   7 mph 76% 0 in
14:49 72 °F 63.7 °F 29.80 in Calm   6 mph 75% 0 in
14:54 72 °F 63.1 °F 29.80 in Calm   7 mph 74% 0 in
14:59 72 °F 63.1 °F 29.79 in Calm   2 mph 74% 0 in
15:04 71.8 °F 62.2 °F 29.80 in WNW 6.9 mph 8 mph 72% 0 in
15:09 71.8 °F 61.9 °F 29.80 in North 4.9 mph 5 mph 71% 0 in
15:14 71.8 °F 61.5 °F 29.80 in Calm   4 mph 70% 0 in
15:19 71.6 °F 61.7 °F 29.80 in ESE 0.9 mph 1 mph 71% 0 in
15:24 71.6 °F 61.3 °F 29.80 in ENE 2.9 mph 6 mph 70% 0 in
15:29 71.6 °F 60.8 °F 29.80 in NNW 2 mph 5 mph 69% 0 in
15:34 71.6 °F 60.1 °F 29.80 in Calm   4 mph 67% 0 in
15:39 71.4 °F 59.5 °F 29.80 in WNW 0.9 mph 7 mph 66% 0 in
15:44 71.6 °F 60.8 °F 29.80 in NW 2.9 mph 4 mph 69% 0 in
15:49 71.4 °F 59.5 °F 29.80 in Calm   6 mph 66% 0 in
15:54 71.8 °F 60.3 °F 29.80 in Calm   2 mph 67% 0 in
15:59 71.8 °F 59.4 °F 29.80 in WNW 0.9 mph 5 mph 65% 0 in
16:04 71.8 °F 59.7 °F 29.80 in WSW 0.9 mph 1 mph 66% 0 in
16:09 71.4 °F 58.1 °F 29.81 in Calm   6 mph 63% 0 in
16:14 71.4 °F 57.7 °F 29.81 in Calm   2 mph 62% 0 in
16:19 71.4 °F 58.1 °F 29.81 in Calm   4 mph 63% 0 in
16:24 71.4 °F 59 °F 29.81 in NW 2 mph 2 mph 65% 0 in
16:29 71.4 °F 59.9 °F 29.81 in West 4.9 mph 8 mph 67% 0 in
16:34 71.4 °F 59.9 °F 29.81 in Calm   4 mph 67% 0 in
16:39 71.2 °F 60.1 °F 29.81 in ENE 4.9 mph 5 mph 68% 0 in
16:44 71.2 °F 61 °F 29.81 in Calm   4 mph 70% 0 in
16:49 71.1 °F 60.8 °F 29.81 in NW 0.9 mph 4 mph 70% 0 in
16:54 70.9 °F 60.6 °F 29.81 in Calm   2 mph 70% 0 in
16:59 70.7 °F 60.8 °F 29.81 in NNE 4.9 mph 5 mph 71% 0 in
17:04 70.3 °F 60.8 °F 29.82 in Calm     72% 0 in
17:09 70.2 °F 60.6 °F 29.82 in NW 0.9 mph 2 mph 72% 0 in
17:14 70 °F 60.1 °F 29.82 in Calm   6 mph 71% 0 in
17:19 70 °F 61 °F 29.82 in Calm   3 mph 73% 0 in
17:24 69.6 °F 59.7 °F 29.82 in Calm   1 mph 71% 0 in
17:29 69.3 °F 59.9 °F 29.82 in Calm     72% 0 in
17:34 69.1 °F 60.1 °F 29.83 in Calm     73% 0 in
17:39 68.7 °F 59.7 °F 29.83 in Calm   1 mph 73% 0 in
17:44 68.4 °F 59 °F 29.83 in Calm     72% 0 in
17:49 68.2 °F 59.5 °F 29.83 in Calm   1 mph 74% 0 in
17:54 67.8 °F 59.2 °F 29.83 in NE 0.9 mph 5 mph 74% 0 in
17:59 67.6 °F 59.4 °F 29.83 in Calm   3 mph 75% 0 in
18:04 67.5 °F 58.8 °F 29.83 in Calm   4 mph 74% 0 in
18:09 67.3 °F 58.6 °F 29.83 in Calm   3 mph 74% 0 in
18:14 66.9 °F 57.9 °F 29.83 in Calm   3 mph 73% 0 in
18:19 66.6 °F 56.8 °F 29.84 in Calm   2 mph 71% 0 in
18:24 66.4 °F 56.7 °F 29.84 in West 6.9 mph 7 mph 71% 0 in
18:29 66 °F 55.9 °F 29.84 in NW 0.9 mph 5 mph 70% 0 in
18:34 65.8 °F 55.8 °F 29.84 in Calm     70% 0 in
18:39 65.7 °F 55.6 °F 29.85 in Calm   2 mph 70% 0 in
18:44 65.3 °F 55.2 °F 29.85 in Calm   2 mph 70% 0 in
18:49 64.9 °F 55.8 °F 29.85 in Calm   1 mph 72% 0 in
18:54 64.8 °F 55.6 °F 29.85 in Calm   4 mph 72% 0 in
18:59 64.2 °F 56.1 °F 29.85 in Calm   4 mph 75% 0 in
19:04 64 °F 55.9 °F 29.85 in Calm     75% 0 in
19:09 63.7 °F 55.6 °F 29.85 in Calm   4 mph 75% 0 in
19:14 63.3 °F 55.9 °F 29.86 in Calm   1 mph 77% 0 in
19:19 63 °F 55.6 °F 29.86 in Calm     77% 0 in
19:24 62.6 °F 55.2 °F 29.86 in Calm     77% 0 in
19:29 62.2 °F 54.9 °F 29.86 in Calm     77% 0 in
19:34 62.1 °F 54.7 °F 29.86 in Calm     77% 0 in
19:39 61.5 °F 54.7 °F 29.86 in Calm     78% 0 in
19:44 61.2 °F 54.3 °F 29.87 in Calm     78% 0 in
19:49 60.8 °F 54 °F 29.87 in Calm     78% 0 in
19:54 60.4 °F 53.6 °F 29.87 in North 0.9 mph 2 mph 78% 0 in
19:59 60.3 °F 53.4 °F 29.87 in Calm   3 mph 78% 0 in
20:04 60.3 °F 53.1 °F 29.88 in Calm   3 mph 77% 0 in
20:09 60.4 °F 52.9 °F 29.88 in Calm     76% 0 in
20:14 60.4 °F 53.2 °F 29.88 in Calm   4 mph 77% 0 in
20:19 60.4 °F 53.2 °F 29.89 in Calm     77% 0 in
20:24 60.3 °F 53.1 °F 29.89 in Calm     77% 0 in
20:29 59.7 °F 52.9 °F 29.89 in Calm     78% 0 in
20:34 59.5 °F 52.7 °F 29.90 in Calm     78% 0 in
20:39 59.2 °F 52.3 °F 29.90 in Calm     78% 0 in
20:44 58.8 °F 52 °F 29.90 in Calm   1 mph 78% 0 in
20:49 58.6 °F 51.8 °F 29.90 in Calm     78% 0 in
20:54 58.3 °F 51.4 °F 29.90 in Calm     78% 0 in
20:59 57.9 °F 51.1 °F 29.91 in Calm     78% 0 in
21:04 57.7 °F 50.9 °F 29.91 in Calm     78% 0 in
21:09 57.6 °F 50.4 °F 29.91 in Calm     77% 0 in
21:14 57.2 °F 50 °F 29.91 in Calm     77% 0 in
21:19 57 °F 49.5 °F 29.91 in Calm     76% 0 in
21:24 56.8 °F 48.9 °F 29.91 in Calm     75% 0 in
21:29 56.8 °F 48.9 °F 29.92 in Calm     75% 0 in
21:34 56.7 °F 48.7 °F 29.92 in Calm     75% 0 in
21:39 56.5 °F 48.4 °F 29.92 in Calm     74% 0 in
21:44 56.3 °F 47.8 °F 29.92 in Calm     73% 0 in
21:49 56.1 °F 47.7 °F 29.92 in Calm     73% 0 in
21:54 55.9 °F 47.5 °F 29.92 in Calm     73% 0 in
21:59 55.9 °F 47.1 °F 29.92 in Calm     72% 0 in
22:04 55.8 °F 46.9 °F 29.92 in Calm   1 mph 72% 0 in
22:09 55.6 °F 46.8 °F 29.92 in Calm     72% 0 in
22:14 55.6 °F 46.8 °F 29.93 in Calm     72% 0 in
22:19 55.6 °F 46.8 °F 29.93 in Calm     72% 0 in
22:24 55.4 °F 46.6 °F 29.93 in Calm     72% 0 in
22:29 55.2 °F 46 °F 29.93 in Calm     71% 0 in
22:34 55.2 °F 46 °F 29.93 in Calm     71% 0 in
22:39 55.2 °F 46 °F 29.93 in Calm   1 mph 71% 0 in
22:44 55 °F 45.9 °F 29.93 in Calm     71% 0 in
22:49 55 °F 45.9 °F 29.93 in Calm     71% 0 in
22:54 55 °F 45.9 °F 29.93 in Calm     71% 0 in
22:59 55 °F 45.9 °F 29.93 in Calm     71% 0 in
23:04 55 °F 45.9 °F 29.93 in Calm     71% 0 in
23:09 54.9 °F 45.7 °F 29.93 in Calm     71% 0 in
23:14 55 °F 46.2 °F 29.93 in Calm   4 mph 72% 0 in
23:19 55 °F 46.6 °F 29.94 in Calm   1 mph 73% 0 in
23:24 55 °F 46.6 °F 29.94 in Calm     73% 0 in
23:29 55.2 °F 46.8 °F 29.94 in Calm   1 mph 73% 0 in
23:34 55.2 °F 47.1 °F 29.94 in Calm     74% 0 in
23:39 55.2 °F 47.1 °F 29.94 in Calm     74% 0 in
23:44 55.2 °F 47.1 °F 29.94 in Calm     74% 0 in
23:49 55.2 °F 47.1 °F 29.94 in Calm     74% 0 in
23:54 55 °F 46.9 °F 29.94 in Calm     74% 0 in
23:59 55 °F 46.6 °F 29.94 in Calm     73% 0 in
Ellijay Weather
Compliments of Weather Underground - 2.5 mb